Archival Weather

Tahoua

Tahoua, Niger (DRRT)

Report from: Tuesday, June 6, 2023 7:00 AM WAT
Current time: Tuesday, July 16, 2024 5:30 PM WAT

Current weather – Weather history – Daily summaries
Weather forecast

Temperature32.0°C (89.6°F)
Heat index34.9°C (94.9°F)
Dew point21.0°C (69.8°F)
Winds 8 kts (4.1 m/s, 9.2 mph) South-Southwest (200°)
Clouds Sky clear
Altimeter29.85 in.Hg (1011 mB)
Relative humidity52 %
Density altitude2,352 ft. (717 m)
Remarks Ceiling and visibility OK
Flight conditions Visual Meteorological Conditions
Raw dataDRRT 060600Z 20008KT CAVOK 32/21 Q1011
An error has occurred. This application may no longer respond until reloaded. Reload 🗙